Time;durP1;ratioP1;P1;durP2;ratioP2;P2;SDS_P1;SDS_P2;PMS_P1;PMS_P2;Temp;Humidity;BMP_temperature;BMP_pressure;BME280_temperature;BME280_humidity;BME280_pressure;Samples;Min_cycle;Max_cycle;Signal;HPM_P1;HPM_P2
2023/09/08 00:02:24;;;;;;;5.63;4.43;;;18.70;99.90;;;;;;5034002;28;20170;-88
2023/09/08 00:05:04;;;;;;;4.80;4.07;;;18.70;99.90;;;;;;5034047;28;20248;-93
2023/09/08 00:07:30;;;;;;;7.20;4.28;;;18.60;99.90;;;;;;5034324;28;20174;-92
2023/09/08 00:09:56;;;;;;;7.00;4.43;;;18.40;99.90;;;;;;5034253;28;20261;-89
2023/09/08 00:12:24;;;;;;;5.88;4.13;;;18.40;99.90;;;;;;5033333;28;20221;-89
2023/09/08 00:14:58;;;;;;;4.93;4.00;;;18.40;99.90;;;;;;5034274;28;20185;-93
2023/09/08 00:17:23;;;;;;;6.85;5.00;;;18.40;99.90;;;;;;5034352;28;20178;-87
2023/09/08 00:19:50;;;;;;;6.88;4.47;;;18.50;99.90;;;;;;5034975;28;20179;-93
2023/09/08 00:22:16;;;;;;;5.22;4.28;;;18.50;99.90;;;;;;5033970;28;20182;-89
2023/09/08 00:24:41;;;;;;;6.65;4.13;;;18.50;99.90;;;;;;5067950;28;20218;-89
2023/09/08 00:27:09;;;;;;;6.80;3.97;;;18.50;99.90;;;;;;5034352;28;20613;-89
2023/09/08 00:29:34;;;;;;;10.50;4.57;;;18.50;99.90;;;;;;5034481;28;20602;-93
2023/09/08 00:32:00;;;;;;;9.18;4.82;;;18.40;99.90;;;;;;5034008;28;20241;-87
2023/09/08 00:34:26;;;;;;;8.77;4.53;;;18.30;99.90;;;;;;5034723;28;20234;-88
2023/09/08 00:36:54;;;;;;;9.93;4.82;;;18.40;99.90;;;;;;5034903;28;20170;-88
2023/09/08 00:39:20;;;;;;;7.40;4.72;;;18.30;99.90;;;;;;5033845;28;20186;-87
2023/09/08 00:41:45;;;;;;;8.18;4.82;;;18.30;99.90;;;;;;5025435;28;20190;-89
2023/09/08 00:44:11;;;;;;;9.63;4.70;;;18.30;99.90;;;;;;5035543;28;20175;-86
2023/09/08 00:46:40;;;;;;;6.57;4.68;;;18.30;99.90;;;;;;5037117;28;20189;-87
2023/09/08 00:49:06;;;;;;;8.68;4.45;;;18.20;99.90;;;;;;5036933;28;20167;-88
2023/09/08 00:51:31;;;;;;;7.65;4.75;;;18.20;99.90;;;;;;5037277;28;20210;-90
2023/09/08 00:53:57;;;;;;;7.80;4.68;;;18.10;99.90;;;;;;5037419;28;20604;-88
2023/09/08 00:56:30;;;;;;;8.48;5.00;;;18.10;99.90;;;;;;5036777;28;20284;-87
2023/09/08 00:58:56;;;;;;;6.45;4.47;;;18.10;99.90;;;;;;5036645;28;20198;-87
2023/09/08 01:01:22;;;;;;;7.38;4.57;;;18.10;99.90;;;;;;5036853;28;20179;-87
2023/09/08 01:03:48;;;;;;;7.35;4.45;;;18.00;99.90;;;;;;5038056;28;20175;-89
2023/09/08 01:06:14;;;;;;;9.75;4.60;;;17.90;99.90;;;;;;5036860;28;20182;-89
2023/09/08 01:08:40;;;;;;;5.97;4.60;;;18.00;99.90;;;;;;5036773;28;20175;-90
2023/09/08 01:11:07;;;;;;;10.82;5.13;;;18.00;99.90;;;;;;5036335;28;20732;-90
2023/09/08 01:13:32;;;;;;;7.53;5.13;;;18.00;99.90;;;;;;5036738;28;20179;-87
2023/09/08 01:16:03;;;;;;;5.72;4.50;;;18.00;99.90;;;;;;5036672;28;20273;-88
2023/09/08 01:18:29;;;;;;;6.25;4.45;;;18.00;99.90;;;;;;5036861;28;20170;-87
2023/09/08 01:21:15;;;;;;;5.70;4.78;;;17.90;99.90;;;;;;5037022;28;20189;-86
2023/09/08 01:23:59;;;;;;;6.70;4.47;;;17.90;99.90;;;;;;5037751;28;20174;-88
2023/09/08 01:26:40;;;;;;;7.40;4.60;;;17.90;99.90;;;;;;5036855;28;20256;-89
2023/09/08 01:29:06;;;;;;;5.90;4.50;;;17.80;99.90;;;;;;5036563;28;20201;-89
2023/09/08 01:31:32;;;;;;;8.85;4.57;;;17.80;99.90;;;;;;5036386;28;20210;-89
2023/09/08 01:34:01;;;;;;;7.63;4.28;;;17.80;99.90;;;;;;5036065;28;20684;-89
2023/09/08 01:36:34;;;;;;;7.20;4.60;;;17.70;99.90;;;;;;5036141;28;20282;-88
2023/09/08 01:39:01;;;;;;;6.28;4.90;;;17.50;99.90;;;;;;5036341;28;20175;-90
2023/09/08 01:41:26;;;;;;;9.13;5.15;;;17.30;99.90;;;;;;5036163;28;20213;-89
2023/09/08 01:43:52;;;;;;;6.80;5.10;;;17.20;99.90;;;;;;5036545;28;20191;-88
2023/09/08 01:46:22;;;;;;;10.88;5.40;;;17.20;99.90;;;;;;5036626;28;20186;-88
2023/09/08 01:48:47;;;;;;;8.38;5.28;;;17.20;99.90;;;;;;5036985;28;20523;-88
2023/09/08 01:51:13;;;;;;;9.93;4.32;;;17.20;99.90;;;;;;5037794;28;20214;-90
2023/09/08 01:53:39;;;;;;;8.27;5.00;;;17.20;99.90;;;;;;5037091;28;20178;-88
2023/09/08 01:56:11;;;;;;;7.55;4.90;;;17.10;99.90;;;;;;5036981;28;20190;-88
2023/09/08 01:58:37;;;;;;;7.88;5.20;;;17.00;99.90;;;;;;5036796;28;20187;-89
2023/09/08 02:01:05;;;;;;;5.80;4.82;;;16.80;99.90;;;;;;5038042;28;20186;-87
2023/09/08 02:03:32;;;;;;;7.28;4.80;;;16.80;99.90;;;;;;5036686;28;20182;-88
2023/09/08 02:06:04;;;;;;;7.80;4.97;;;16.80;99.90;;;;;;5037223;28;20170;-89
2023/09/08 02:08:30;;;;;;;8.98;5.28;;;16.80;99.90;;;;;;5020306;28;20602;-92
2023/09/08 02:10:55;;;;;;;8.05;4.88;;;16.80;99.90;;;;;;5036723;28;20218;-87
2023/09/08 02:13:21;;;;;;;5.80;4.88;;;16.80;99.90;;;;;;5036354;28;20513;-88
2023/09/08 02:15:47;;;;;;;6.88;4.55;;;16.70;99.90;;;;;;5035856;28;20178;-89
2023/09/08 02:18:15;;;;;;;10.23;4.85;;;16.80;99.90;;;;;;5035633;28;20557;-87
2023/09/08 02:20:41;;;;;;;8.95;4.40;;;16.70;99.90;;;;;;5036675;28;20175;-89
2023/09/08 02:23:07;;;;;;;9.77;4.80;;;16.60;99.90;;;;;;5037299;28;20740;-87
2023/09/08 02:25:33;;;;;;;8.43;5.45;;;16.50;99.90;;;;;;5036075;28;20182;-89
2023/09/08 02:28:02;;;;;;;9.32;4.75;;;16.50;99.90;;;;;;5034914;28;20181;-88
2023/09/08 02:30:27;;;;;;;9.98;4.72;;;16.60;99.90;;;;;;5034999;28;20179;-88
2023/09/08 02:32:54;;;;;;;8.35;5.05;;;16.60;99.90;;;;;;5035396;28;20234;-88
2023/09/08 02:35:21;;;;;;;9.88;5.00;;;16.40;99.90;;;;;;5036325;28;20174;-88
2023/09/08 02:37:48;;;;;;;8.40;4.93;;;16.20;99.90;;;;;;5036484;28;20605;-88
2023/09/08 02:40:14;;;;;;;5.43;4.85;;;16.10;99.90;;;;;;5036582;28;20178;-89
2023/09/08 02:42:39;;;;;;;8.48;4.70;;;16.00;99.90;;;;;;5036733;28;20232;-87
2023/09/08 02:45:05;;;;;;;6.55;4.90;;;16.00;99.90;;;;;;5036596;28;20181;-90
2023/09/08 02:47:45;;;;;;;5.90;5.00;;;16.00;99.90;;;;;;5035839;28;20175;-90
2023/09/08 02:50:10;;;;;;;8.75;5.20;;;16.00;99.90;;;;;;5035781;28;20628;-88
2023/09/08 02:52:36;;;;;;;5.60;4.75;;;16.10;99.90;;;;;;5034562;28;20309;-89
2023/09/08 02:55:02;;;;;;;5.82;4.70;;;16.10;99.90;;;;;;5035337;28;20175;-89
2023/09/08 02:57:35;;;;;;;7.10;5.15;;;16.20;99.90;;;;;;5034542;28;20278;-89
2023/09/08 03:00:00;;;;;;;6.65;4.72;;;16.10;99.90;;;;;;5034984;28;20174;-89
2023/09/08 03:02:26;;;;;;;7.97;4.50;;;16.10;99.90;;;;;;5034994;28;20185;-89
2023/09/08 03:04:52;;;;;;;6.45;4.72;;;16.10;99.90;;;;;;5034587;28;20175;-89
2023/09/08 03:07:23;;;;;;;6.03;4.97;;;16.10;99.90;;;;;;5034270;28;20239;-88
2023/09/08 03:09:48;;;;;;;6.85;5.15;;;16.00;99.90;;;;;;5034252;28;20177;-88
2023/09/08 03:12:14;;;;;;;8.80;5.00;;;15.90;99.90;;;;;;5034828;28;20210;-88
2023/09/08 03:14:40;;;;;;;7.45;4.88;;;15.80;99.90;;;;;;5036543;28;20171;-90
2023/09/08 03:17:08;;;;;;;6.15;4.70;;;15.70;99.90;;;;;;5036036;28;20186;-88
2023/09/08 03:19:34;;;;;;;6.43;5.18;;;15.70;99.90;;;;;;5036440;28;20166;-90
2023/09/08 03:21:59;;;;;;;7.28;5.07;;;15.70;99.90;;;;;;5034841;28;20175;-91
2023/09/08 03:24:25;;;;;;;7.60;5.20;;;15.80;99.90;;;;;;5034337;28;20691;-92
2023/09/08 03:26:59;;;;;;;5.75;4.85;;;15.90;99.90;;;;;;5034250;28;20178;-87
2023/09/08 03:29:25;;;;;;;5.97;4.78;;;16.00;99.90;;;;;;5034784;28;20182;-93
2023/09/08 03:31:50;;;;;;;7.38;4.50;;;15.90;99.90;;;;;;5034356;28;20217;-89
2023/09/08 03:34:17;;;;;;;8.57;5.32;;;15.70;99.90;;;;;;5034627;28;20230;-89
2023/09/08 03:36:43;;;;;;;6.85;4.90;;;15.60;99.90;;;;;;5034802;28;20269;-89
2023/09/08 03:39:09;;;;;;;8.10;5.70;;;15.60;99.90;;;;;;5034405;28;20584;-89
2023/09/08 03:41:35;;;;;;;5.93;4.72;;;15.70;99.90;;;;;;5033817;28;20186;-92
2023/09/08 03:44:01;;;;;;;7.93;4.97;;;15.70;99.90;;;;;;5034187;28;20518;-89
2023/09/08 03:46:26;;;;;;;8.07;5.10;;;15.70;99.90;;;;;;5034058;28;20625;-88
2023/09/08 03:49:01;;;;;;;7.25;5.15;;;15.70;99.90;;;;;;5033878;28;20174;-88
2023/09/08 03:51:27;;;;;;;6.18;4.95;;;15.70;99.90;;;;;;5033781;28;20206;-88
2023/09/08 03:53:53;;;;;;;10.60;5.05;;;15.80;99.90;;;;;;5033789;28;20182;-87
2023/09/08 03:56:22;;;;;;;7.72;4.78;;;15.80;99.90;;;;;;5033475;28;20175;-89
2023/09/08 03:58:48;;;;;;;9.20;5.35;;;15.80;99.90;;;;;;5034012;28;20186;-88
2023/09/08 04:01:13;;;;;;;10.82;5.13;;;15.60;99.90;;;;;;5034499;28;20517;-89
2023/09/08 04:03:39;;;;;;;7.15;4.80;;;15.50;99.90;;;;;;5034521;28;20660;-88
2023/09/08 04:06:05;;;;;;;12.02;5.10;;;15.40;99.90;;;;;;5034088;28;20613;-93
2023/09/08 04:08:33;;;;;;;8.70;5.50;;;15.50;99.90;;;;;;5034906;28;20249;-91
2023/09/08 04:10:58;;;;;;;7.60;5.40;;;15.50;99.90;;;;;;5017252;28;20202;-91
2023/09/08 04:13:24;;;;;;;11.13;5.38;;;15.50;99.90;;;;;;5033717;28;20233;-94
2023/09/08 04:15:49;;;;;;;6.93;5.13;;;15.50;99.90;;;;;;5034457;28;20235;-96
2023/09/08 04:18:16;;;;;;;8.63;5.43;;;15.40;99.90;;;;;;5036570;28;20198;-95
2023/09/08 04:20:42;;;;;;;9.68;5.43;;;15.30;99.90;;;;;;5043378;28;20167;-96
2023/09/08 04:23:08;;;;;;;8.15;5.00;;;15.10;99.90;;;;;;5038709;28;20312;-96
2023/09/08 04:25:34;;;;;;;7.35;5.32;;;15.10;99.90;;;;;;5037713;28;20205;-91
2023/09/08 04:28:10;;;;;;;7.03;5.25;;;15.20;99.90;;;;;;5039099;28;20186;-96
2023/09/08 04:30:36;;;;;;;9.15;5.38;;;15.20;99.90;;;;;;5037695;28;20236;-94
2023/09/08 04:33:01;;;;;;;7.70;5.63;;;15.30;99.90;;;;;;5037281;28;20323;-93
2023/09/08 04:35:27;;;;;;;5.63;5.05;;;15.30;99.90;;;;;;5038199;28;20233;-90
2023/09/08 04:37:56;;;;;;;12.68;5.68;;;15.20;99.90;;;;;;5038019;28;20197;-88
2023/09/08 04:40:21;;;;;;;8.38;5.88;;;15.10;99.90;;;;;;5037646;28;20159;-88
2023/09/08 04:42:47;;;;;;;8.02;5.47;;;15.10;99.90;;;;;;5037030;28;20248;-96
2023/09/08 04:45:13;;;;;;;6.55;5.25;;;15.10;99.90;;;;;;5037303;28;20170;-94
2023/09/08 04:47:43;;;;;;;7.53;5.55;;;15.20;99.90;;;;;;5038385;28;20197;-89
2023/09/08 04:50:09;;;;;;;11.30;5.50;;;15.10;99.90;;;;;;5037370;28;20501;-94
2023/09/08 04:52:35;;;;;;;6.25;5.32;;;15.20;99.90;;;;;;5036471;28;20224;-94
2023/09/08 04:55:00;;;;;;;8.65;5.57;;;15.20;99.90;;;;;;5036806;28;20171;-90
2023/09/08 04:57:26;;;;;;;7.13;5.93;;;15.20;99.90;;;;;;5037976;28;20214;-90
2023/09/08 04:59:54;;;;;;;8.45;6.88;;;15.20;99.90;;;;;;5038047;28;20182;-93
2023/09/08 05:02:19;;;;;;;10.02;6.30;;;15.30;99.90;;;;;;5037786;28;20174;-94
2023/09/08 05:04:45;;;;;;;10.68;6.10;;;15.40;99.90;;;;;;5037106;28;20281;-92
2023/09/08 05:07:13;;;;;;;10.43;6.20;;;15.50;99.90;;;;;;5036934;28;20632;-94
2023/09/08 05:09:47;;;;;;;9.07;6.47;;;15.60;99.90;;;;;;5037158;28;20298;-93
2023/09/08 05:12:12;;;;;;;8.02;5.78;;;15.60;99.90;;;;;;5036668;28;20225;-93
2023/09/08 05:14:38;;;;;;;7.50;6.22;;;15.60;99.90;;;;;;5037266;28;20516;-90
2023/09/08 05:17:04;;;;;;;9.82;5.95;;;15.70;99.90;;;;;;5038523;28;20179;-94
2023/09/08 05:19:32;;;;;;;8.80;5.68;;;15.70;99.90;;;;;;5070115;28;20617;-94
2023/09/08 05:21:58;;;;;;;11.95;6.32;;;15.70;99.90;;;;;;5070211;28;20610;-92
2023/09/08 05:24:25;;;;;;;8.00;5.63;;;15.70;99.90;;;;;;5069317;28;20185;-89
2023/09/08 05:26:51;;;;;;;8.35;5.65;;;15.70;99.90;;;;;;5036028;28;20524;-89
2023/09/08 05:29:18;;;;;;;7.90;6.68;;;15.70;99.90;;;;;;5035693;28;20178;-89
2023/09/08 05:31:43;;;;;;;8.02;6.35;;;15.80;99.90;;;;;;5035764;28;20206;-89
2023/09/08 05:34:10;;;;;;;8.88;5.47;;;16.00;99.90;;;;;;5035765;28;20248;-89
2023/09/08 05:36:39;;;;;;;8.55;6.00;;;16.10;99.90;;;;;;5035578;28;20278;-91
2023/09/08 05:39:06;;;;;;;9.23;6.18;;;16.10;99.90;;;;;;5038943;28;20186;-90
2023/09/08 05:41:33;;;;;;;10.38;6.43;;;16.20;99.90;;;;;;5020368;28;20285;-88
2023/09/08 05:44:00;;;;;;;8.38;5.95;;;16.20;99.90;;;;;;5032306;28;20175;-90
2023/09/08 05:46:26;;;;;;;7.53;5.55;;;16.30;99.90;;;;;;5036033;28;20182;-89
2023/09/08 05:48:52;;;;;;;7.55;5.43;;;16.30;99.90;;;;;;5035694;28;20183;-90
2023/09/08 05:51:18;;;;;;;9.40;6.00;;;16.40;99.90;;;;;;5029950;28;20210;-90
2023/09/08 05:53:43;;;;;;;6.18;5.40;;;16.50;99.90;;;;;;5019522;28;20240;-90
2023/09/08 05:56:10;;;;;;;8.05;5.88;;;16.60;99.90;;;;;;5052127;28;20213;-90
2023/09/08 05:58:36;;;;;;;7.35;5.88;;;16.70;99.90;;;;;;5016220;28;20314;-93
2023/09/08 06:01:03;;;;;;;12.02;6.43;;;16.80;99.90;;;;;;5016411;28;20677;-90
2023/09/08 06:03:29;;;;;;;8.77;6.20;;;17.00;99.90;;;;;;5015591;28;20613;-89
2023/09/08 06:05:55;;;;;;;7.15;5.82;;;17.10;99.90;;;;;;5015830;28;20526;-91
2023/09/08 06:08:21;;;;;;;9.65;5.55;;;17.20;99.90;;;;;;5015696;28;20175;-90
2023/09/08 06:10:49;;;;;;;9.75;5.90;;;17.30;99.90;;;;;;5015726;28;20217;-90
2023/09/08 06:13:15;;;;;;;8.90;6.50;;;17.30;99.90;;;;;;5015668;28;20179;-91
2023/09/08 06:15:40;;;;;;;7.22;5.85;;;17.40;99.90;;;;;;5015715;28;20182;-92
2023/09/08 06:18:06;;;;;;;9.20;5.93;;;17.40;99.90;;;;;;5015252;28;20625;-90
2023/09/08 06:20:32;;;;;;;7.70;6.40;;;17.50;99.90;;;;;;5015519;28;20179;-92
2023/09/08 06:22:57;;;;;;;7.40;6.20;;;17.60;99.90;;;;;;5048557;28;20606;-91
2023/09/08 06:25:23;;;;;;;9.48;5.95;;;17.70;99.90;;;;;;5015578;28;20175;-91
2023/09/08 06:27:49;;;;;;;8.38;5.80;;;17.70;99.90;;;;;;5015553;28;20270;-91
2023/09/08 06:30:17;;;;;;;12.55;6.70;;;17.80;99.90;;;;;;5015294;28;20225;-91
2023/09/08 06:32:43;;;;;;;9.10;6.82;;;17.90;99.90;;;;;;5018744;28;20221;-89
2023/09/08 06:35:09;;;;;;;9.07;5.88;;;17.90;99.90;;;;;;5034985;28;20178;-90
2023/09/08 06:37:39;;;;;;;16.05;6.47;;;18.00;99.90;;;;;;5034936;28;20190;-91
2023/09/08 06:40:06;;;;;;;10.30;6.18;;;18.10;99.90;;;;;;5035017;28;20182;-90
2023/09/08 06:42:31;;;;;;;10.18;5.95;;;18.10;99.90;;;;;;5034387;28;20175;-91
2023/09/08 06:44:59;;;;;;;10.13;6.72;;;18.20;99.90;;;;;;5034880;28;20518;-89
2023/09/08 06:47:24;;;;;;;8.05;6.28;;;18.20;99.90;;;;;;5035107;28;20589;-89
2023/09/08 06:49:51;;;;;;;9.77;6.63;;;18.30;99.90;;;;;;5034542;28;20175;-89
2023/09/08 06:52:18;;;;;;;11.38;5.95;;;18.30;99.90;;;;;;5034695;28;20776;-89
2023/09/08 06:54:45;;;;;;;10.43;6.47;;;18.50;99.90;;;;;;5034692;28;20217;-88
2023/09/08 06:57:12;;;;;;;9.20;5.90;;;18.60;99.90;;;;;;5034351;28;20650;-87
2023/09/08 06:59:43;;;;;;;10.02;5.78;;;18.80;99.90;;;;;;5035030;28;20182;-86
2023/09/08 07:02:09;;;;;;;16.83;5.90;;;18.90;99.90;;;;;;5034317;28;20175;-86
2023/09/08 07:04:35;;;;;;;7.45;5.50;;;19.00;99.90;;;;;;5017600;28;20528;-87
2023/09/08 07:07:06;;;;;;;9.85;6.45;;;19.10;99.90;;;;;;5047564;28;20175;-88
2023/09/08 07:09:33;;;;;;;10.77;5.80;;;19.20;99.90;;;;;;5047503;28;20572;-89
2023/09/08 07:11:59;;;;;;;10.45;6.70;;;19.20;99.90;;;;;;5014667;28;20233;-87
2023/09/08 07:14:24;;;;;;;8.80;6.28;;;19.30;99.90;;;;;;5014742;28;20187;-90
2023/09/08 07:16:50;;;;;;;12.35;6.43;;;19.20;99.90;;;;;;5021312;28;20174;-87
2023/09/08 07:19:16;;;;;;;10.40;6.20;;;19.20;99.90;;;;;;5024738;28;20186;-87
2023/09/08 07:21:42;;;;;;;10.13;6.50;;;19.30;99.90;;;;;;5014621;28;20179;-86
2023/09/08 07:24:08;;;;;;;10.95;6.45;;;19.40;99.90;;;;;;5014674;28;20179;-88
2023/09/08 07:26:34;;;;;;;8.82;5.93;;;19.50;99.90;;;;;;5014432;28;20222;-87
2023/09/08 07:29:00;;;;;;;9.10;5.82;;;19.70;99.90;;;;;;5014388;28;20182;-87
2023/09/08 07:31:26;;;;;;;9.00;6.05;;;19.80;99.90;;;;;;5014097;28;20641;-88
2023/09/08 07:33:51;;;;;;;9.63;5.82;;;20.00;99.90;;;;;;5014267;28;20230;-90
2023/09/08 07:36:17;;;;;;;7.65;5.65;;;20.20;99.90;;;;;;5014382;28;20226;-89
2023/09/08 07:38:42;;;;;;;7.07;5.47;;;20.30;99.90;;;;;;5014684;28;20179;-88
2023/09/08 07:41:17;;;;;;;9.65;5.35;;;20.40;99.90;;;;;;5014389;28;20179;-89
2023/09/08 07:43:45;;;;;;;11.23;5.53;;;20.60;99.90;;;;;;5014290;28;20175;-89
2023/09/08 07:46:11;;;;;;;7.13;5.53;;;20.60;99.90;;;;;;5030445;28;20187;-88
2023/09/08 07:48:36;;;;;;;7.30;5.38;;;20.70;99.90;;;;;;5030614;28;20179;-88
2023/09/08 07:51:14;;;;;;;7.78;5.72;;;20.90;99.90;;;;;;5030641;28;20653;-88
2023/09/08 07:53:40;;;;;;;8.23;5.97;;;21.00;99.90;;;;;;5033910;28;20179;-88
2023/09/08 07:56:06;;;;;;;6.55;5.50;;;21.10;99.90;;;;;;5034697;28;20179;-88
2023/09/08 07:58:32;;;;;;;8.38;6.00;;;21.20;99.90;;;;;;5035022;28;20266;-88
2023/09/08 08:01:05;;;;;;;8.98;5.80;;;21.30;99.90;;;;;;5037641;28;20262;-88
2023/09/08 08:03:30;;;;;;;9.07;5.50;;;21.40;99.90;;;;;;5037812;28;20166;-89
2023/09/08 08:05:58;;;;;;;9.38;5.72;;;21.50;99.90;;;;;;5037910;28;20185;-89
2023/09/08 08:08:23;;;;;;;6.07;5.20;;;21.50;99.90;;;;;;5037946;28;20277;-88
2023/09/08 08:10:49;;;;;;;7.95;5.28;;;21.60;99.90;;;;;;5037197;28;20257;-88
2023/09/08 08:13:15;;;;;;;9.02;5.13;;;21.70;99.90;;;;;;5037417;28;20185;-91
2023/09/08 08:15:42;;;;;;;6.40;5.10;;;21.80;99.90;;;;;;5037652;28;20174;-89
2023/09/08 08:18:09;;;;;;;13.98;5.47;;;22.00;99.90;;;;;;5037658;28;20178;-88
2023/09/08 08:20:36;;;;;;;7.80;5.15;;;22.10;99.90;;;;;;5037458;28;20178;-89
2023/09/08 08:23:02;;;;;;;6.32;5.10;;;22.20;99.90;;;;;;5037550;28;20621;-88
2023/09/08 08:25:28;;;;;;;12.93;5.43;;;22.40;99.90;;;;;;5037703;28;20179;-88
2023/09/08 08:27:56;;;;;;;10.13;5.18;;;22.60;99.90;;;;;;5037001;28;20695;-87
2023/09/08 08:30:22;;;;;;;6.45;4.93;;;22.70;99.90;;;;;;5037752;28;20201;-88
2023/09/08 08:32:47;;;;;;;11.60;5.18;;;22.80;99.90;;;;;;5037026;28;20673;-88
2023/09/08 08:35:13;;;;;;;9.00;5.03;;;22.90;99.90;;;;;;5038464;28;20178;-87
2023/09/08 08:37:40;;;;;;;8.35;4.85;;;23.00;99.90;;;;;;5037184;28;20617;-88
2023/09/08 08:40:09;;;;;;;6.90;4.82;;;23.00;99.90;;;;;;5037130;28;20175;-89
2023/09/08 08:42:42;;;;;;;7.15;4.80;;;23.20;99.90;;;;;;5037084;28;20333;-90
2023/09/08 08:45:08;;;;;;;9.93;4.43;;;23.20;99.90;;;;;;5037323;28;20186;-89
2023/09/08 08:47:34;;;;;;;5.30;4.00;;;23.40;99.90;;;;;;5037044;28;20186;-90
2023/09/08 08:50:01;;;;;;;6.53;3.92;;;23.60;99.90;;;;;;5037012;28;20512;-88
2023/09/08 08:52:28;;;;;;;6.15;4.00;;;23.90;99.90;;;;;;5036862;28;20224;-92
2023/09/08 08:54:54;;;;;;;6.70;4.22;;;24.10;99.90;;;;;;5037005;28;20254;-88
2023/09/08 08:57:22;;;;;;;9.13;3.97;;;24.20;99.90;;;;;;5036741;28;20580;-91
2023/09/08 08:59:50;;;;;;;5.95;3.95;;;24.40;99.90;;;;;;5036660;28;20178;-90
2023/09/08 09:02:28;;;;;;;5.65;3.80;;;24.50;99.90;;;;;;5035785;28;20273;-88
2023/09/08 09:04:54;;;;;;;4.97;3.88;;;24.60;99.90;;;;;;5036180;28;20170;-89
2023/09/08 09:07:20;;;;;;;6.10;3.72;;;24.70;99.90;;;;;;5036822;28;20181;-91
2023/09/08 09:09:46;;;;;;;4.75;3.63;;;24.80;99.90;;;;;;5036729;28;20175;-87
2023/09/08 09:12:15;;;;;;;4.65;3.40;;;25.00;99.90;;;;;;5036658;28;20237;-90
2023/09/08 09:14:47;;;;;;;6.78;3.70;;;25.10;99.90;;;;;;5036911;28;20178;-89
2023/09/08 09:17:14;;;;;;;4.95;3.65;;;25.10;99.90;;;;;;5035940;28;20186;-91
2023/09/08 09:19:40;;;;;;;7.88;3.70;;;25.30;99.90;;;;;;5036596;28;20174;-89
2023/09/08 09:22:08;;;;;;;6.65;4.05;;;25.30;99.90;;;;;;5036220;28;20562;-91
2023/09/08 09:24:38;;;;;;;10.18;3.78;;;25.30;99.90;;;;;;5036765;28;20174;-90
2023/09/08 09:27:06;;;;;;;5.88;3.60;;;25.40;99.90;;;;;;5036422;28;20179;-90
2023/09/08 09:29:32;;;;;;;5.75;3.50;;;25.50;99.90;;;;;;5036172;28;20182;-89
2023/09/08 09:32:07;;;;;;;5.75;3.80;;;25.50;99.90;;;;;;5035798;28;20568;-91
2023/09/08 09:34:34;;;;;;;4.72;3.40;;;25.50;99.90;;;;;;5036341;28;20228;-91
2023/09/08 09:36:59;;;;;;;8.40;3.92;;;25.70;99.90;;;;;;5037484;28;20240;-91
2023/09/08 09:39:26;;;;;;;5.55;3.20;;;25.70;99.70;;;;;;5036323;28;20274;-91
2023/09/08 09:41:57;;;;;;;5.40;3.60;;;25.90;99.80;;;;;;5036277;28;20229;-95
2023/09/08 09:44:23;;;;;;;4.05;3.10;;;26.00;99.20;;;;;;5036361;28;20198;-93
2023/09/08 09:46:52;;;;;;;4.55;3.08;;;26.00;99.10;;;;;;5036222;28;20186;-93
2023/09/08 09:49:18;;;;;;;5.13;3.17;;;26.10;98.50;;;;;;5035795;28;20233;-90
2023/09/08 09:51:50;;;;;;;4.75;3.10;;;26.20;98.60;;;;;;5035947;28;20214;-90
2023/09/08 09:54:17;;;;;;;3.83;3.30;;;26.30;99.50;;;;;;5035984;28;20667;-93
2023/09/08 09:56:44;;;;;;;4.32;3.53;;;26.30;99.00;;;;;;5035722;28;20213;-89
2023/09/08 09:59:12;;;;;;;4.70;3.28;;;26.40;99.00;;;;;;5036095;28;20617;-94
2023/09/08 10:01:42;;;;;;;4.32;3.20;;;26.50;98.50;;;;;;5036531;28;20273;-88
2023/09/08 10:04:08;;;;;;;6.20;3.50;;;26.50;96.90;;;;;;5035991;28;20271;-91
2023/09/08 10:06:36;;;;;;;3.70;3.00;;;26.50;97.10;;;;;;5035507;28;20175;-91
2023/09/08 10:09:13;;;;;;;4.88;3.08;;;26.60;97.20;;;;;;5035524;28;20519;-90
2023/09/08 10:11:55;;;;;;;9.85;3.35;;;26.60;97.10;;;;;;5036020;28;20797;-91
2023/09/08 10:14:22;;;;;;;3.88;3.05;;;26.70;96.80;;;;;;5035636;28;20177;-93
2023/09/08 10:16:52;;;;;;;5.50;3.08;;;26.80;97.10;;;;;;5035395;28;20182;-93
2023/09/08 10:19:19;;;;;;;6.35;3.38;;;26.80;96.60;;;;;;5035135;28;20175;-91
2023/09/08 10:21:48;;;;;;;5.38;3.10;;;26.80;96.10;;;;;;5035600;28;20260;-95
2023/09/08 10:24:17;;;;;;;5.53;3.53;;;26.90;96.90;;;;;;5035854;28;20256;-93
2023/09/08 10:26:50;;;;;;;5.35;3.30;;;26.90;96.40;;;;;;5035615;28;20232;-93
2023/09/08 10:29:17;;;;;;;5.15;3.25;;;26.90;96.40;;;;;;5035200;28;20174;-92
2023/09/08 10:31:44;;;;;;;5.00;3.28;;;27.00;96.60;;;;;;5036993;28;20237;-93
2023/09/08 10:34:10;;;;;;;8.90;3.40;;;27.00;95.70;;;;;;5035591;28;20594;-95
2023/09/08 10:36:36;;;;;;;4.97;3.08;;;27.10;96.00;;;;;;5035324;28;20178;-92
2023/09/08 10:39:41;;;;;;;7.70;3.10;;;27.20;96.90;;;;;;5034884;28;20232;-93
2023/09/08 10:42:21;;;;;;;5.68;3.17;;;27.30;97.70;;;;;;5036165;28;20171;-92
2023/09/08 10:45:04;;;;;;;5.97;3.03;;;27.40;95.80;;;;;;5035124;28;20174;-95
2023/09/08 10:47:42;;;;;;;3.72;3.17;;;27.40;95.70;;;;;;5035176;28;20179;-94
2023/09/08 10:50:19;;;;;;;6.22;2.75;;;27.40;95.30;;;;;;5034859;28;20244;-94
2023/09/08 10:53:08;;;;;;;5.65;3.10;;;27.60;95.80;;;;;;5035724;28;20210;-94
2023/09/08 10:55:53;;;;;;;6.05;3.28;;;27.60;95.90;;;;;;5035313;28;20517;-91
2023/09/08 10:58:20;;;;;;;4.30;2.63;;;27.60;92.50;;;;;;5034660;28;20181;-90
2023/09/08 11:00:50;;;;;;;4.35;2.63;;;27.60;93.80;;;;;;5033988;28;20193;-92
2023/09/08 11:03:38;;;;;;;4.10;2.90;;;27.60;92.30;;;;;;5034390;28;20181;-92
2023/09/08 11:06:08;;;;;;;6.88;2.97;;;27.70;93.20;;;;;;5024231;28;20224;-93
2023/09/08 11:08:38;;;;;;;4.20;3.15;;;27.70;94.50;;;;;;5034433;28;20532;-94
2023/09/08 11:11:04;;;;;;;5.65;3.10;;;27.80;94.80;;;;;;5034015;28;20205;-93
2023/09/08 11:13:33;;;;;;;5.57;3.33;;;27.90;94.30;;;;;;5034438;28;20564;-91
2023/09/08 11:15:59;;;;;;;5.28;2.92;;;28.00;93.90;;;;;;5035244;28;20181;-90
2023/09/08 11:18:28;;;;;;;4.97;2.65;;;28.00;93.00;;;;;;5035116;28;20179;-91
2023/09/08 11:20:55;;;;;;;6.85;3.00;;;28.20;92.60;;;;;;5034500;28;20181;-93
2023/09/08 11:23:21;;;;;;;6.03;2.80;;;28.20;93.40;;;;;;5034227;28;20263;-89
2023/09/08 11:25:48;;;;;;;6.78;2.85;;;28.30;92.80;;;;;;5034769;28;20171;-91
2023/09/08 11:28:15;;;;;;;3.95;3.08;;;28.20;91.90;;;;;;5033843;28;20182;-91
2023/09/08 11:30:41;;;;;;;4.43;3.28;;;28.20;92.20;;;;;;5034514;28;20488;-94
2023/09/08 11:33:17;;;;;;;5.13;3.10;;;28.20;92.30;;;;;;5032631;28;20736;-90
2023/09/08 11:35:46;;;;;;;3.67;3.00;;;28.20;92.60;;;;;;5034416;28;20213;-94
2023/09/08 11:38:12;;;;;;;7.07;3.45;;;28.30;93.40;;;;;;5035118;28;20181;-93
2023/09/08 11:40:38;;;;;;;4.30;2.83;;;28.40;93.00;;;;;;5034780;28;20175;-89
2023/09/08 11:43:05;;;;;;;5.80;3.10;;;28.50;92.60;;;;;;5034965;28;20189;-91
2023/09/08 11:45:35;;;;;;;3.40;2.90;;;28.50;91.90;;;;;;5035758;28;20170;-94
2023/09/08 11:48:01;;;;;;;10.43;3.10;;;28.60;91.90;;;;;;5034049;28;20232;-92
2023/09/08 11:50:27;;;;;;;3.28;2.80;;;28.60;92.80;;;;;;5035144;28;20173;-91
2023/09/08 11:52:54;;;;;;;3.67;2.70;;;28.70;91.80;;;;;;5034056;28;20672;-90
2023/09/08 11:55:22;;;;;;;3.60;2.88;;;28.70;92.70;;;;;;5035332;28;20636;-94
2023/09/08 11:58:00;;;;;;;6.60;3.08;;;28.70;91.70;;;;;;5034923;28;20290;-94
2023/09/08 12:00:27;;;;;;;5.93;2.90;;;28.70;92.60;;;;;;5034965;28;20176;-91
2023/09/08 12:02:54;;;;;;;5.47;2.92;;;28.80;93.30;;;;;;5034683;28;20508;-91
2023/09/08 12:05:25;;;;;;;6.05;3.08;;;28.80;92.20;;;;;;5033918;28;20186;-95
2023/09/08 12:07:52;;;;;;;5.70;2.65;;;28.90;92.00;;;;;;5034905;28;20171;-96
2023/09/08 12:10:18;;;;;;;5.15;2.83;;;29.00;91.90;;;;;;5034385;28;20275;-96
2023/09/08 12:12:45;;;;;;;5.35;2.60;;;29.00;91.70;;;;;;5034919;28;20213;-94
2023/09/08 12:15:11;;;;;;;5.40;2.97;;;29.10;91.40;;;;;;5034484;28;20563;-94
2023/09/08 12:17:54;;;;;;;4.07;3.00;;;29.10;91.00;;;;;;5034999;28;20178;-93
2023/09/08 12:20:39;;;;;;;4.45;2.70;;;29.10;91.80;;;;;;5034791;28;20236;-96
2023/09/08 12:23:16;;;;;;;3.53;2.58;;;29.20;91.20;;;;;;5034447;28;20249;-96
2023/09/08 12:25:49;;;;;;;4.65;2.67;;;29.20;90.70;;;;;;5034302;28;20316;-92
2023/09/08 12:28:21;;;;;;;4.28;2.50;;;29.20;90.00;;;;;;5033669;28;20174;-93
2023/09/08 12:30:47;;;;;;;3.72;3.03;;;29.30;91.10;;;;;;5034612;28;20266;-92
2023/09/08 12:33:14;;;;;;;4.43;2.92;;;29.30;89.30;;;;;;5034679;28;20272;-92
2023/09/08 12:35:45;;;;;;;3.65;2.63;;;29.30;90.20;;;;;;5036312;28;20174;-91
2023/09/08 12:38:11;;;;;;;5.15;2.63;;;29.30;88.80;;;;;;5035243;28;20261;-93
2023/09/08 12:40:38;;;;;;;5.25;2.70;;;29.30;90.80;;;;;;5037398;28;20281;-89
2023/09/08 12:43:04;;;;;;;9.38;2.80;;;29.30;88.80;;;;;;5038727;28;20181;-92
2023/09/08 12:45:32;;;;;;;4.80;2.63;;;29.40;89.60;;;;;;5038278;28;20174;-92
2023/09/08 12:48:03;;;;;;;7.88;2.53;;;29.40;89.00;;;;;;5020926;28;20229;-90
2023/09/08 12:50:29;;;;;;;8.60;2.80;;;29.30;89.00;;;;;;5017973;28;20178;-90